首页
METAR-TAF:

METAR-TAF

机场 :

Gioia del Colle, 意大利

纬度: 40-46N, 经度: 016-56E, 海拔: 345米

当前天气观测

该预报发布于37分钟前的09:55 UTC
风速20节,风向
温度 15°C
湿度 82%
气压 1010 hPa
能見度: 8000
多云层高于1200英尺

METAR: LIBV 150955Z 17020KT 8000 BKN012 15/12 Q1010 RMK BKN VIS MIN 8000 WIND THR32 17018KT WIND THR14 17019KT GRN

时间: 11:32 (10:32 UTC)

预报

该预报发布于2小时和32分钟前的08:00 UTC
预报有效从15日的 09点(UTC)到 15日的 18点(UTC)
风速15节,风向
能見度: 6000
散云层高于800英尺
成为
从 15日的 10点(UTC)到 15日的 12点(UTC)
风速20节,风向,有时为30节阵风
能见度10公里或以上
散云层高于1500英尺

TAF: LIBV 150800Z 1509/1518 18015KT 6000 SCT008 BECMG 1510/1512 18020G30KT 9999 SCT015

超过4000个机场的气象观测和天气预报(METAR&TAF报告)。

可查询的气象台以黄色和红色小点在地图上表示。

将鼠标移到小点上方,可查看气象台名称。

然后点击查看天气观测和预报。

如需切换地图:点击带黑十字的绿色按钮放大地图;点击带横线的绿色按钮缩小地图;或者点击绿色箭头查看邻近地区的地图。


METAR-TAF: